createdAt,value
2022-12-23T00:03:32.869Z,8.76
2022-12-23T00:08:34.155Z,8.76
2022-12-23T00:13:54.060Z,8.76
2022-12-23T00:18:55.312Z,8.79
2022-12-23T00:23:56.530Z,8.78
2022-12-23T00:28:58.557Z,8.78
2022-12-23T00:33:59.765Z,8.79
2022-12-23T00:39:19.782Z,8.77
2022-12-23T00:44:21.047Z,8.78
2022-12-23T00:49:40.859Z,8.79
2022-12-23T00:54:42.153Z,8.78
2022-12-23T00:59:43.423Z,8.76
2022-12-23T01:05:03.391Z,8.77
2022-12-23T01:10:04.623Z,8.76
2022-12-23T01:15:05.819Z,8.75
2022-12-23T01:20:07.008Z,8.76
2022-12-23T01:25:08.320Z,8.77
2022-12-23T01:30:09.515Z,8.76
2022-12-23T01:35:10.682Z,8.79
2022-12-23T01:40:11.871Z,8.79
2022-12-23T01:45:13.107Z,8.72
2022-12-23T01:50:14.277Z,8.63
2022-12-23T01:55:15.524Z,8.60
2022-12-23T02:00:35.308Z,8.62
2022-12-23T02:05:36.475Z,8.66
2022-12-23T02:10:37.859Z,8.73
2022-12-23T02:15:57.786Z,8.76
2022-12-23T02:20:59.014Z,8.76
2022-12-23T02:26:00.265Z,8.80
2022-12-23T02:31:01.549Z,8.83
2022-12-23T02:36:02.782Z,8.84
2022-12-23T02:41:03.999Z,8.87
2022-12-23T02:46:05.218Z,8.87
2022-12-23T02:51:06.519Z,8.88
2022-12-23T02:56:07.715Z,8.87
2022-12-23T03:01:08.937Z,8.90
2022-12-23T03:06:10.160Z,8.92
2022-12-23T03:11:11.349Z,8.92
2022-12-23T03:16:13.144Z,9.00
2022-12-23T03:21:14.414Z,9.01
2022-12-23T03:26:15.642Z,9.03
2022-12-23T03:31:16.859Z,9.05
2022-12-23T03:36:18.032Z,9.11
2022-12-23T03:41:19.242Z,9.13
2022-12-23T03:46:20.556Z,9.20
2022-12-23T03:51:21.770Z,9.25
2022-12-23T03:56:22.914Z,9.24
2022-12-23T04:01:24.126Z,9.25
2022-12-23T04:06:25.372Z,9.26
2022-12-23T04:11:26.539Z,9.24
2022-12-23T04:16:27.760Z,9.20
2022-12-23T04:21:29.018Z,9.17
2022-12-23T04:26:30.185Z,9.13
2022-12-23T04:31:31.444Z,9.07
2022-12-23T04:36:33.284Z,9.07
2022-12-23T04:41:34.418Z,9.07
2022-12-23T04:46:35.709Z,9.04
2022-12-23T04:51:36.936Z,9.05
2022-12-23T04:56:38.144Z,9.04
2022-12-23T05:01:39.528Z,9.03
2022-12-23T05:06:40.879Z,9.02
2022-12-23T05:11:42.509Z,8.98
2022-12-23T05:16:43.919Z,8.95
2022-12-23T05:21:45.152Z,8.94
2022-12-23T05:26:48.060Z,8.93
2022-12-23T05:31:50.034Z,8.91
2022-12-23T05:36:51.343Z,8.90
2022-12-23T05:41:52.609Z,8.90
2022-12-23T05:46:53.802Z,8.93
2022-12-23T05:51:54.998Z,8.96
2022-12-23T05:56:56.233Z,8.95
2022-12-23T06:01:57.557Z,8.94
2022-12-23T06:06:58.795Z,8.99
2022-12-23T06:11:59.965Z,9.02
2022-12-23T06:17:01.247Z,9.01
2022-12-23T06:22:02.544Z,9.01
2022-12-23T06:27:04.108Z,9.02
2022-12-23T06:32:05.315Z,9.02
2022-12-23T06:37:06.797Z,9.03
2022-12-23T06:42:08.014Z,9.04
2022-12-23T06:47:09.261Z,9.05
2022-12-23T06:52:10.510Z,9.08
2022-12-23T06:57:11.924Z,9.09
2022-12-23T07:02:13.322Z,9.08
2022-12-23T07:07:14.604Z,9.07
2022-12-23T07:12:15.874Z,9.02
2022-12-23T07:17:17.098Z,8.97
2022-12-23T07:22:18.264Z,8.98
2022-12-23T07:27:19.405Z,8.99
2022-12-23T07:32:20.575Z,9.01
2022-12-23T07:37:21.777Z,9.03
2022-12-23T07:47:44.177Z,9.07
2022-12-23T07:52:45.415Z,9.09
2022-12-23T07:57:46.605Z,9.10
2022-12-23T08:02:48.057Z,9.12
2022-12-23T08:07:49.978Z,9.11
2022-12-23T08:12:51.185Z,9.08
2022-12-23T08:17:52.348Z,9.09
2022-12-23T08:22:53.634Z,9.06
2022-12-23T08:27:54.817Z,9.07
2022-12-23T08:32:55.980Z,9.07
2022-12-23T08:37:57.196Z,9.08
2022-12-23T08:42:58.383Z,9.10
2022-12-23T08:47:59.608Z,9.10
2022-12-23T08:53:00.881Z,9.09
2022-12-23T08:58:02.081Z,9.11
2022-12-23T09:03:03.365Z,9.13
2022-12-23T09:08:04.608Z,9.15
2022-12-23T09:13:05.790Z,9.17
2022-12-23T09:18:06.933Z,9.18
2022-12-23T09:23:08.212Z,9.18
2022-12-23T09:28:09.397Z,9.18
2022-12-23T09:33:10.608Z,9.20
2022-12-23T09:38:11.791Z,9.23
2022-12-23T09:43:12.983Z,9.24
2022-12-23T09:48:14.185Z,9.26
2022-12-23T09:53:15.365Z,9.28
2022-12-23T09:58:17.567Z,9.31
2022-12-23T10:03:18.960Z,9.34
2022-12-23T10:08:20.515Z,9.30
2022-12-23T10:13:21.694Z,9.28
2022-12-23T10:18:22.925Z,9.28
2022-12-23T10:23:24.059Z,9.31
2022-12-23T10:28:29.624Z,9.33
2022-12-23T10:33:31.462Z,9.40
2022-12-23T10:38:32.801Z,9.48
2022-12-23T10:43:34.943Z,9.49
2022-12-23T10:48:36.717Z,9.45
2022-12-23T10:53:37.998Z,9.41
2022-12-23T10:58:39.204Z,9.38
2022-12-23T11:03:40.468Z,9.34
2022-12-23T11:08:41.715Z,9.35
2022-12-23T11:13:42.853Z,9.37
2022-12-23T11:18:43.991Z,9.33
2022-12-23T11:23:45.197Z,9.30
2022-12-23T11:28:46.432Z,9.34
2022-12-23T11:33:47.681Z,9.43
2022-12-23T11:38:49.325Z,9.47
2022-12-23T11:43:50.507Z,9.39
2022-12-23T11:48:54.915Z,9.27
2022-12-23T11:53:56.225Z,9.19
2022-12-23T11:58:57.357Z,9.14
2022-12-23T12:03:59.461Z,9.10
2022-12-23T12:09:00.714Z,9.10
2022-12-23T12:14:01.956Z,9.12
2022-12-23T12:19:03.159Z,9.13
2022-12-23T12:24:17.713Z,9.12
2022-12-23T12:29:19.342Z,9.06
2022-12-23T12:34:20.502Z,9.02
2022-12-23T12:39:21.722Z,8.98
2022-12-23T12:44:22.877Z,8.99
2022-12-23T12:49:24.072Z,8.99
2022-12-23T12:54:25.604Z,8.94
2022-12-23T12:59:26.798Z,8.89
2022-12-23T13:04:28.008Z,8.88
2022-12-23T13:09:29.153Z,8.90
2022-12-23T13:14:30.401Z,8.92
2022-12-23T13:19:31.672Z,8.90
2022-12-23T13:24:32.804Z,8.88
2022-12-23T13:29:33.971Z,8.88
2022-12-23T13:34:35.137Z,8.84
2022-12-23T13:39:36.304Z,8.84
2022-12-23T13:44:37.915Z,8.87
2022-12-23T13:49:39.112Z,8.91
2022-12-23T13:54:40.271Z,8.96
2022-12-23T13:59:41.549Z,8.98
2022-12-23T14:04:42.799Z,8.98
2022-12-23T14:09:44.000Z,8.99
2022-12-23T14:14:45.231Z,9.07
2022-12-23T14:19:46.569Z,9.11
2022-12-23T14:24:48.119Z,9.18
2022-12-23T14:29:49.343Z,9.25
2022-12-23T14:34:50.506Z,9.30
2022-12-23T14:39:51.760Z,9.35
2022-12-23T14:44:52.984Z,9.38
2022-12-23T14:49:54.195Z,9.41
2022-12-23T14:55:28.511Z,9.47
2022-12-23T15:00:16.524Z,9.50
2022-12-23T15:05:17.724Z,9.57
2022-12-23T15:10:18.959Z,9.59
2022-12-23T15:15:20.155Z,9.60
2022-12-23T15:20:21.369Z,9.61
2022-12-23T15:25:22.561Z,9.60
2022-12-23T15:30:23.833Z,9.60
2022-12-23T15:35:25.064Z,9.64
2022-12-23T15:40:26.924Z,9.66
2022-12-23T15:45:28.153Z,9.71
2022-12-23T15:50:29.402Z,9.64
2022-12-23T15:55:30.629Z,9.65
2022-12-23T16:00:31.796Z,9.72
2022-12-23T16:05:33.003Z,9.78
2022-12-23T16:10:34.175Z,9.84
2022-12-23T16:15:35.353Z,9.89
2022-12-23T16:20:36.497Z,9.94
2022-12-23T16:25:38.598Z,9.99
2022-12-23T16:30:40.119Z,9.53
2022-12-23T16:35:41.483Z,10.23
2022-12-23T16:40:42.735Z,10.42
2022-12-23T16:45:44.077Z,10.51
2022-12-23T16:50:45.319Z,10.80
2022-12-23T16:55:53.868Z,11.05
2022-12-23T17:00:58.065Z,11.17
2022-12-23T17:05:59.323Z,11.37
2022-12-23T17:11:00.788Z,11.40
2022-12-23T17:16:01.996Z,11.42
2022-12-23T17:21:03.226Z,11.40
2022-12-23T17:26:04.429Z,11.34
2022-12-23T17:31:11.987Z,11.28
2022-12-23T17:36:16.664Z,11.28
2022-12-23T17:41:17.902Z,11.24
2022-12-23T17:46:19.164Z,11.30
2022-12-23T17:51:20.403Z,11.33
2022-12-23T17:56:21.626Z,11.30
2022-12-23T18:01:22.879Z,11.34
2022-12-23T18:06:24.123Z,11.33
2022-12-23T18:11:25.361Z,11.23
2022-12-23T18:16:26.584Z,11.17
2022-12-23T18:21:27.849Z,11.17
2022-12-23T18:26:29.038Z,11.15
2022-12-23T18:31:30.327Z,11.13
2022-12-23T18:36:32.858Z,11.08
2022-12-23T18:41:34.111Z,10.93
2022-12-23T18:46:35.437Z,10.95
2022-12-23T18:51:36.679Z,10.98
2022-12-23T18:56:37.944Z,11.09
2022-12-23T19:01:39.137Z,11.21
2022-12-23T19:06:40.436Z,11.22
2022-12-23T19:11:41.604Z,11.29
2022-12-23T19:16:47.561Z,11.25
2022-12-23T19:21:52.393Z,11.14
2022-12-23T19:26:53.973Z,11.17
2022-12-23T19:31:55.151Z,11.39
2022-12-23T19:36:56.318Z,11.32
2022-12-23T19:41:57.542Z,11.30
2022-12-23T19:46:59.395Z,11.26
2022-12-23T19:52:00.538Z,11.25
2022-12-23T19:57:01.737Z,11.22
2022-12-23T20:02:02.926Z,11.21
2022-12-23T20:07:04.164Z,11.17
2022-12-23T20:12:05.334Z,11.15
2022-12-23T20:17:06.597Z,11.22
2022-12-23T20:22:07.757Z,11.25
2022-12-23T20:27:11.993Z,11.26
2022-12-23T20:32:13.868Z,11.26
2022-12-23T20:37:15.727Z,11.29
2022-12-23T20:42:17.042Z,11.31
2022-12-23T20:47:18.282Z,11.35
2022-12-23T20:52:19.528Z,11.33
2022-12-23T20:57:20.716Z,11.34
2022-12-23T21:02:21.942Z,11.38
2022-12-23T21:07:23.271Z,11.40
2022-12-23T21:12:24.455Z,11.40
2022-12-23T21:17:26.130Z,11.41
2022-12-23T21:22:27.413Z,11.38
2022-12-23T21:27:28.594Z,11.32
2022-12-23T21:32:29.787Z,11.23
2022-12-23T21:37:30.991Z,11.21
2022-12-23T21:42:32.188Z,11.23
2022-12-23T21:47:33.357Z,11.23
2022-12-23T21:52:34.509Z,11.25
2022-12-23T21:57:35.669Z,11.16
2022-12-23T22:02:36.909Z,11.14
2022-12-23T22:07:38.150Z,11.09
2022-12-23T22:12:39.611Z,11.08
2022-12-23T22:17:40.777Z,11.07
2022-12-23T22:22:41.985Z,11.02
2022-12-23T22:27:43.198Z,11.05
2022-12-23T22:32:44.410Z,10.97
2022-12-23T22:37:45.547Z,10.99
2022-12-23T22:42:46.693Z,10.98
2022-12-23T22:47:47.877Z,11.03
2022-12-23T22:52:49.036Z,10.99
2022-12-23T22:57:50.264Z,11.01
2022-12-23T23:02:51.398Z,11.02
2022-12-23T23:07:52.589Z,10.99
2022-12-23T23:12:53.724Z,10.97
2022-12-23T23:17:54.905Z,10.97
2022-12-23T23:22:56.132Z,10.92
2022-12-23T23:27:57.322Z,10.89
2022-12-23T23:32:58.543Z,10.83
2022-12-23T23:37:59.733Z,10.83
2022-12-23T23:43:00.943Z,10.82
2022-12-23T23:48:02.117Z,10.81
2022-12-23T23:53:03.287Z,10.78
2022-12-23T23:58:04.432Z,10.74
